This is the latest recevied weather packets stored in our database for station/object K5FEP. If no packets are shown the sender has not sent any weather packets the latest 10 day(s).
| Time | Temp. | Humidity | Pressure | Rain* | Wind** | Luminosity | Snow |
|---|---|---|---|---|---|---|---|
| 1777840226 | 18.89° C | 25% | 1015.8 hPa | 0 mm | - | 612 W/m² | - |
| 1777839924 | 17.78° C | 27% | 1015.9 hPa | 0 mm | - | 558 W/m² | - |
| 1777839622 | 17.78° C | 26% | 1015.8 hPa | 0 mm | - | 648 W/m² | - |
| 1777839320 | 18.89° C | 25% | 1015.8 hPa | 0 mm | - | 665 W/m² | - |
| 1777839016 | 17.78° C | 28% | 1015.8 hPa | 0 mm | - | 681 W/m² | - |
| 1777838712 | 17.78° C | 27% | 1015.9 hPa | 0 mm | - | 699 W/m² | - |
| 1777838409 | 17.78° C | 27% | 1015.9 hPa | 0 mm | - | 714 W/m² | - |
| 1777838106 | 17.78° C | 26% | 1016.1 hPa | 0 mm | - | 731 W/m² | - |
| 1777837803 | 17.78° C | 28% | 1016.1 hPa | 0 mm | - | 748 W/m² | - |
| 1777837500 | 17.78° C | 26% | 1016.2 hPa | 0 mm | - | 760 W/m² | - |
| 1777837195 | 17.78° C | 25% | 1016.2 hPa | 0 mm | - | 775 W/m² | - |
| 1777836891 | 17.78° C | 28% | 1016.3 hPa | 0 mm | - | 790 W/m² | - |
| 1777836587 | 17.78° C | 25% | 1016 hPa | 0 mm | - | 804 W/m² | - |
| 1777836283 | 17.22° C | 28% | 1016.6 hPa | 0 mm | - | 817 W/m² | - |
| 1777835979 | 17.22° C | 28% | 1016.7 hPa | 0 mm | - | 830 W/m² | - |
| 1777835677 | 17.78° C | 27% | 1016.6 hPa | 0 mm | - | 841 W/m² | - |
| 1777835373 | 16.67° C | 31% | 1016.7 hPa | 0 mm | - | 854 W/m² | - |
| 1777835071 | 17.22° C | 28% | 1016.8 hPa | 0 mm | - | 864 W/m² | - |
| 1777834767 | 16.67° C | 30% | 1016.8 hPa | 0 mm | - | 876 W/m² | - |
| 1777834464 | 17.22° C | 28% | 1016.8 hPa | 0 mm | - | 886 W/m² | - |
| 1777834163 | 17.22° C | 28% | 1017.1 hPa | 0 mm | - | 896 W/m² | - |
| 1777833860 | 17.22° C | 29% | 1016.9 hPa | 0 mm | - | 905 W/m² | - |
| 1777833556 | 16.67° C | 30% | 1017.1 hPa | 0 mm | - | 913 W/m² | - |
| 1777833253 | 16.11° C | 29% | 1017.1 hPa | 0 mm | - | 923 W/m² | - |
| 1777832950 | 16.11° C | 27% | 1017.2 hPa | 0 mm | - | 931 W/m² | - |
* Rain latest hour (hover to see other rain measurements)
** Current wind speed in m/s (hover to see current wind gust speed)